Ustick, Illinois
Current Conditions -  °F | °C
As of 10:55 AM on Monday 22 Dec 2014 (Local Time) from KSQI Reporting Station
Overcast Overcast  
Wind Chill: 27°   Ceiling: 3600
Heat Index: 36°   Visibility: 4mi
Dew Point: 30°   Wind: 14mph
Humidity: 81%   Direction: 110°ESE
Pressure: 29.77"   Gusts: NA
Location:  41.8285°N, 89.9656°W
Report Text: KSQI 221655Z 11012KT 4SM BKN036 OVC044 02/M01 A2977 RMK AO1
Loading
Personal Weather Stations






























Interactive Weather Map New forecast layout! Learn more

10-Day Weather Forecast

Advertisements
Track Severe Weather on mobile